Time;durP1;ratioP1;P1;durP2;ratioP2;P2;SDS_P1;SDS_P2;PMS_P1;PMS_P2;Temp;Humidity;BMP_temperature;BMP_pressure;BME280_temperature;BME280_humidity;BME280_pressure;Samples;Min_cycle;Max_cycle;Signal;HPM_P1;HPM_P2
2021/03/09 00:00:36;;;;;;;31.10;17.67;;;-2.30;99.90;;;;;;6283440;22;20043;-90
2021/03/09 00:03:04;;;;;;;29.08;18.25;;;-2.30;99.90;;;;;;6259950;22;20020;-88
2021/03/09 00:05:31;;;;;;;31.60;17.58;;;-2.30;99.90;;;;;;6289274;22;20113;-87
2021/03/09 00:08:06;;;;;;;31.77;17.00;;;-2.30;99.90;;;;;;6269254;22;20023;-86
2021/03/09 00:10:35;;;;;;;30.95;17.48;;;-2.40;99.90;;;;;;6244042;22;20024;-87
2021/03/09 00:13:03;;;;;;;33.05;18.13;;;-2.40;99.90;;;;;;6269315;22;20047;-88
2021/03/09 00:15:30;;;;;;;29.85;17.70;;;-2.40;99.90;;;;;;6287413;22;20015;-87
2021/03/09 00:17:57;;;;;;;38.22;16.95;;;-2.50;99.90;;;;;;6280832;22;20036;-88
2021/03/09 00:20:23;;;;;;;31.50;17.52;;;-2.50;99.90;;;;;;6252653;22;20035;-88
2021/03/09 00:22:50;;;;;;;28.60;17.55;;;-2.50;99.90;;;;;;6252530;22;20078;-87
2021/03/09 00:25:16;;;;;;;34.13;18.00;;;-2.40;99.90;;;;;;6279342;22;20024;-88
2021/03/09 00:27:43;;;;;;;29.20;16.73;;;-2.40;99.90;;;;;;6278688;22;20331;-87
2021/03/09 00:30:10;;;;;;;30.42;18.25;;;-2.50;99.90;;;;;;6278616;22;20019;-87
2021/03/09 00:32:37;;;;;;;32.00;17.38;;;-2.50;99.90;;;;;;6278020;22;20024;-89
2021/03/09 00:35:05;;;;;;;30.50;17.33;;;-2.60;99.90;;;;;;6277816;22;20020;-88
2021/03/09 00:37:31;;;;;;;30.88;17.90;;;-2.60;99.90;;;;;;6278620;22;20091;-89
2021/03/09 00:40:00;;;;;;;31.92;18.50;;;-2.70;99.90;;;;;;6278867;22;20050;-88
2021/03/09 00:42:27;;;;;;;31.27;18.95;;;-2.70;99.90;;;;;;6252766;22;20099;-88
2021/03/09 00:44:54;;;;;;;34.13;17.95;;;-2.70;99.90;;;;;;6278183;22;20027;-87
2021/03/09 00:47:20;;;;;;;31.70;18.27;;;-2.80;99.90;;;;;;6265989;22;20105;-86
2021/03/09 00:49:50;;;;;;;39.78;18.77;;;-2.80;99.90;;;;;;6278631;22;20023;-87
2021/03/09 00:52:17;;;;;;;32.97;19.58;;;-2.80;99.90;;;;;;6281291;22;20034;-87
2021/03/09 00:54:43;;;;;;;38.25;19.60;;;-2.80;99.90;;;;;;6252542;22;20051;-88
2021/03/09 00:57:10;;;;;;;36.70;18.75;;;-2.80;99.90;;;;;;6279294;22;20031;-86
2021/03/09 00:59:42;;;;;;;33.55;18.45;;;-2.80;99.90;;;;;;6251380;22;20383;-87
2021/03/09 01:02:09;;;;;;;34.88;18.48;;;-2.80;99.90;;;;;;6203641;22;20038;-87
2021/03/09 01:04:38;;;;;;;32.80;18.80;;;-2.80;99.90;;;;;;6278868;22;20027;-87
2021/03/09 01:07:05;;;;;;;31.63;18.85;;;-2.90;99.90;;;;;;6279400;22;20426;-87
2021/03/09 01:09:34;;;;;;;30.55;18.67;;;-2.90;99.90;;;;;;6279352;22;20023;-87
2021/03/09 01:12:03;;;;;;;33.70;18.55;;;-3.00;99.90;;;;;;6279918;22;20031;-87
2021/03/09 01:14:29;;;;;;;34.47;19.02;;;-3.00;99.90;;;;;;6278206;22;20015;-88
2021/03/09 01:16:56;;;;;;;31.38;18.95;;;-2.90;99.90;;;;;;6259547;22;20371;-87
2021/03/09 01:19:23;;;;;;;35.55;18.98;;;-2.90;99.90;;;;;;6260285;22;20086;-88
2021/03/09 01:21:50;;;;;;;33.00;18.38;;;-2.90;99.90;;;;;;6288462;22;20039;-87
2021/03/09 01:24:16;;;;;;;33.22;18.70;;;-2.90;99.90;;;;;;6289146;22;20091;-86
2021/03/09 01:26:44;;;;;;;34.60;18.30;;;-2.90;99.90;;;;;;6288974;22;20027;-87
2021/03/09 01:29:13;;;;;;;32.75;18.40;;;-2.90;99.90;;;;;;6260395;22;20411;-86
2021/03/09 01:31:40;;;;;;;34.20;16.80;;;-3.00;99.90;;;;;;6287473;22;20019;-87
2021/03/09 01:34:08;;;;;;;34.67;17.95;;;-3.00;99.90;;;;;;6260146;22;20031;-87
2021/03/09 01:36:39;;;;;;;33.72;17.88;;;-3.00;99.90;;;;;;6292528;22;20015;-86
2021/03/09 01:39:06;;;;;;;33.70;17.88;;;-3.00;99.90;;;;;;6263854;22;20019;-88
2021/03/09 01:41:38;;;;;;;33.35;18.35;;;-3.00;99.90;;;;;;6259053;22;20020;-89
2021/03/09 01:44:05;;;;;;;33.40;18.42;;;-3.00;99.90;;;;;;6288299;22;20023;-85
2021/03/09 01:46:39;;;;;;;31.48;17.17;;;-3.00;99.90;;;;;;6241059;22;20038;-86
2021/03/09 01:49:06;;;;;;;36.60;19.30;;;-3.10;99.90;;;;;;6293002;22;20020;-86
2021/03/09 01:51:32;;;;;;;32.85;19.25;;;-3.10;99.90;;;;;;6266109;22;20358;-87
2021/03/09 01:54:02;;;;;;;32.55;18.08;;;-3.10;99.90;;;;;;6267040;22;20059;-85
2021/03/09 01:56:29;;;;;;;31.88;17.60;;;-3.10;99.90;;;;;;6238871;22;20027;-85
2021/03/09 01:58:56;;;;;;;33.85;18.58;;;-3.00;99.90;;;;;;6266953;22;20023;-86
2021/03/09 02:01:25;;;;;;;36.28;18.02;;;-3.10;99.90;;;;;;6289591;22;20020;-86
2021/03/09 02:03:52;;;;;;;34.92;18.17;;;-3.10;99.90;;;;;;6264914;22;20097;-85
2021/03/09 02:06:19;;;;;;;30.27;18.27;;;-3.10;99.90;;;;;;6293661;22;20027;-86
2021/03/09 02:08:46;;;;;;;33.55;18.55;;;-3.10;99.90;;;;;;6266730;22;20020;-87
2021/03/09 02:11:25;;;;;;;38.58;20.00;;;-3.00;99.90;;;;;;6267143;22;20019;-86
2021/03/09 02:14:05;;;;;;;34.92;17.35;;;-3.00;99.90;;;;;;6293362;22;20027;-86
2021/03/09 02:16:40;;;;;;;34.13;18.80;;;-3.10;99.90;;;;;;6291508;22;20050;-87
2021/03/09 02:19:44;;;;;;;35.38;18.63;;;-3.10;99.90;;;;;;6270237;22;20073;-86
2021/03/09 02:22:29;;;;;;;33.53;18.33;;;-3.20;99.90;;;;;;6270688;22;20024;-88
2021/03/09 02:25:33;;;;;;;32.17;18.42;;;-3.20;99.90;;;;;;6291322;22;20028;-88
2021/03/09 02:28:20;;;;;;;30.73;18.83;;;-3.30;99.90;;;;;;6286323;22;20024;-86
2021/03/09 02:30:50;;;;;;;36.90;20.42;;;-3.40;99.90;;;;;;6285519;22;20023;-87
2021/03/09 02:33:40;;;;;;;39.47;19.73;;;-3.40;99.90;;;;;;6283826;22;20432;-87
2021/03/09 02:36:15;;;;;;;42.95;20.52;;;-3.40;99.90;;;;;;6257615;22;20090;-87
2021/03/09 02:39:07;;;;;;;38.70;19.63;;;-3.30;99.90;;;;;;6284894;22;20019;-87
2021/03/09 02:41:45;;;;;;;35.43;19.40;;;-3.30;99.90;;;;;;6282835;22;20425;-86
2021/03/09 02:44:19;;;;;;;40.35;19.52;;;-3.40;99.90;;;;;;6255918;22;20285;-87
2021/03/09 02:46:47;;;;;;;41.33;21.60;;;-3.30;99.90;;;;;;6268837;22;20074;-87
2021/03/09 02:49:31;;;;;;;41.95;21.50;;;-3.30;99.90;;;;;;6282531;22;20101;-87
2021/03/09 02:51:58;;;;;;;38.67;21.17;;;-3.40;99.90;;;;;;6279819;22;20022;-86
2021/03/09 02:54:26;;;;;;;44.95;22.38;;;-3.40;99.90;;;;;;6251036;22;20024;-87
2021/03/09 02:56:52;;;;;;;39.13;21.38;;;-3.40;99.90;;;;;;6276145;22;20019;-87
2021/03/09 02:59:23;;;;;;;40.22;22.70;;;-3.50;99.90;;;;;;6276550;22;20354;-87
2021/03/09 03:01:51;;;;;;;43.15;22.88;;;-3.50;99.90;;;;;;6276583;22;20020;-86
2021/03/09 03:04:20;;;;;;;46.45;23.70;;;-3.50;99.90;;;;;;6275202;22;20095;-86
2021/03/09 03:06:48;;;;;;;42.65;23.13;;;-3.50;99.90;;;;;;6276344;22;20097;-87
2021/03/09 03:09:25;;;;;;;43.28;21.92;;;-3.50;99.90;;;;;;6276233;22;20438;-85
2021/03/09 03:11:53;;;;;;;43.28;23.35;;;-3.50;99.90;;;;;;6273696;22;20094;-87
2021/03/09 03:14:21;;;;;;;42.20;21.17;;;-3.50;99.90;;;;;;6276006;22;20023;-87
2021/03/09 03:16:49;;;;;;;40.40;22.40;;;-3.60;99.90;;;;;;6276683;22;20024;-86
2021/03/09 03:19:18;;;;;;;43.50;23.13;;;-3.60;99.90;;;;;;6277715;22;20054;-86
2021/03/09 03:21:48;;;;;;;42.90;22.50;;;-3.60;99.90;;;;;;6276519;22;20090;-86
2021/03/09 03:24:18;;;;;;;41.58;21.95;;;-3.50;99.90;;;;;;6275140;22;20085;-86
2021/03/09 03:26:49;;;;;;;42.88;22.15;;;-3.50;99.90;;;;;;6275942;22;20042;-87
2021/03/09 03:29:15;;;;;;;43.20;23.52;;;-3.50;99.90;;;;;;6275678;22;20095;-86
2021/03/09 03:31:42;;;;;;;49.38;24.05;;;-3.60;99.90;;;;;;6275624;22;20139;-86
2021/03/09 03:34:11;;;;;;;41.75;23.27;;;-3.60;99.90;;;;;;6274882;22;20670;-88
2021/03/09 03:36:39;;;;;;;45.75;23.55;;;-3.60;99.90;;;;;;6276237;22;20020;-86
2021/03/09 03:39:09;;;;;;;48.40;25.02;;;-3.50;99.90;;;;;;6250083;22;20141;-88
2021/03/09 03:41:38;;;;;;;42.90;22.55;;;-3.60;99.90;;;;;;6274642;22;20020;-87
2021/03/09 03:44:06;;;;;;;44.80;25.13;;;-3.50;99.90;;;;;;6275267;22;20051;-88
2021/03/09 03:46:34;;;;;;;43.13;23.60;;;-3.50;99.90;;;;;;6274949;22;20451;-86
2021/03/09 03:49:05;;;;;;;52.22;24.92;;;-3.50;99.90;;;;;;6276121;22;20027;-86
2021/03/09 03:51:45;;;;;;;40.42;23.50;;;-3.60;99.90;;;;;;6276657;22;20036;-87
2021/03/09 03:54:35;;;;;;;41.38;21.98;;;-3.50;99.90;;;;;;6278677;22;20385;-86
2021/03/09 03:57:22;;;;;;;42.05;21.75;;;-3.50;99.90;;;;;;6278512;22;20106;-86
2021/03/09 03:59:56;;;;;;;45.03;22.77;;;-3.50;99.90;;;;;;6246478;23;20304;-87
2021/03/09 04:02:25;;;;;;;41.85;22.88;;;-3.50;99.90;;;;;;6248455;22;20020;-85
2021/03/09 04:04:52;;;;;;;39.45;21.67;;;-3.60;99.90;;;;;;6246860;23;20082;-86
2021/03/09 04:07:25;;;;;;;41.33;22.95;;;-3.60;99.90;;;;;;6247172;23;20047;-86
2021/03/09 04:09:54;;;;;;;44.10;22.48;;;-3.70;99.90;;;;;;6247245;23;20303;-86
2021/03/09 04:12:30;;;;;;;45.13;23.90;;;-3.70;99.90;;;;;;6248007;22;20051;-87
2021/03/09 04:15:05;;;;;;;45.88;24.65;;;-3.70;99.90;;;;;;6247912;22;20403;-86
2021/03/09 04:17:35;;;;;;;54.80;26.95;;;-3.70;99.90;;;;;;6247721;22;20020;-87
2021/03/09 04:20:04;;;;;;;;;;;-3.70;99.90;;;;;;6248742;22;20342;-86
2021/03/09 04:22:34;;;;;;;49.42;24.40;;;-3.60;99.90;;;;;;6247806;23;19926;-85
2021/03/09 04:25:04;;;;;;;49.78;25.35;;;-3.60;99.90;;;;;;6272105;22;20020;-87
2021/03/09 04:27:33;;;;;;;51.55;27.02;;;-3.60;99.90;;;;;;6246939;23;20552;-87
2021/03/09 04:30:04;;;;;;;58.03;28.10;;;-3.60;99.90;;;;;;6246955;23;20035;-87
2021/03/09 04:32:31;;;;;;;50.08;25.67;;;-3.50;99.90;;;;;;6271589;22;20635;-87
2021/03/09 04:34:58;;;;;;;54.63;27.20;;;-3.40;99.90;;;;;;6247147;22;20027;-86
2021/03/09 04:37:48;;;;;;;52.78;28.58;;;-3.50;99.90;;;;;;6248759;23;20016;-86
2021/03/09 04:40:15;;;;;;;50.63;27.45;;;-3.40;99.90;;;;;;6258262;22;20090;-85
2021/03/09 04:42:42;;;;;;;56.95;30.10;;;-3.40;99.90;;;;;;6258616;22;20020;-85
2021/03/09 04:45:11;;;;;;;58.42;29.23;;;-3.40;99.90;;;;;;6253353;23;20084;-85
2021/03/09 04:47:38;;;;;;;56.38;29.58;;;-3.40;99.90;;;;;;6252693;22;20435;-85
2021/03/09 04:50:12;;;;;;;54.58;27.70;;;-3.40;99.90;;;;;;6251477;23;20044;-87
2021/03/09 04:52:40;;;;;;;54.05;27.45;;;-3.40;99.90;;;;;;6252302;22;20020;-86
2021/03/09 04:55:08;;;;;;;51.58;27.52;;;-3.50;99.90;;;;;;6255025;22;20051;-86
2021/03/09 04:57:40;;;;;;;57.50;31.00;;;-3.50;99.90;;;;;;6252583;22;20304;-87
2021/03/09 05:00:09;;;;;;;53.80;27.58;;;-3.40;99.90;;;;;;6252959;22;20032;-86
2021/03/09 05:02:45;;;;;;;54.53;27.77;;;-3.40;99.90;;;;;;6253597;22;20094;-85
2021/03/09 05:05:12;;;;;;;54.67;28.35;;;-3.40;99.90;;;;;;6254083;22;20035;-85
2021/03/09 05:07:39;;;;;;;56.03;29.55;;;-3.40;99.90;;;;;;6260790;22;20138;-86
2021/03/09 05:10:07;;;;;;;53.20;28.77;;;-3.50;99.90;;;;;;6257115;23;20044;-87
2021/03/09 05:12:39;;;;;;;52.88;26.90;;;-3.40;99.90;;;;;;6259265;22;20042;-85
2021/03/09 05:15:06;;;;;;;50.85;26.60;;;-3.50;99.90;;;;;;6262526;23;20090;-85
2021/03/09 05:17:37;;;;;;;48.33;25.30;;;-3.50;99.90;;;;;;6257625;22;20092;-87
2021/03/09 05:20:09;;;;;;;49.45;24.90;;;-3.50;99.90;;;;;;6251450;22;20047;-84
2021/03/09 05:22:36;;;;;;;47.55;25.83;;;-3.50;99.90;;;;;;6248409;23;20020;-85
2021/03/09 05:25:05;;;;;;;45.85;25.80;;;-3.60;99.90;;;;;;6248767;22;20307;-85
2021/03/09 05:27:43;;;;;;;48.03;25.60;;;-3.60;99.90;;;;;;6250026;22;20024;-86
2021/03/09 05:30:13;;;;;;;52.78;26.65;;;-3.70;99.90;;;;;;6247833;22;20028;-86
2021/03/09 05:32:42;;;;;;;47.65;24.33;;;-3.70;99.90;;;;;;6247054;22;20034;-85
2021/03/09 05:35:10;;;;;;;48.78;26.95;;;-3.80;99.90;;;;;;6246445;22;20019;-87
2021/03/09 05:37:37;;;;;;;60.22;27.20;;;-3.80;99.90;;;;;;6247086;22;20019;-87
2021/03/09 05:40:05;;;;;;;54.10;28.20;;;-3.70;99.90;;;;;;6245530;22;20016;-85
2021/03/09 05:42:34;;;;;;;58.28;30.25;;;-3.70;99.90;;;;;;6246190;22;20024;-82
2021/03/09 05:45:06;;;;;;;57.45;28.90;;;-3.70;99.90;;;;;;6220096;23;20024;-81
2021/03/09 05:47:39;;;;;;;58.20;30.35;;;-3.60;99.90;;;;;;6244886;23;20094;-82
2021/03/09 05:50:08;;;;;;;59.00;29.17;;;-3.60;99.90;;;;;;6244552;23;20388;-82
2021/03/09 05:52:38;;;;;;;57.05;31.30;;;-3.60;99.90;;;;;;6244668;23;20432;-83
2021/03/09 05:55:07;;;;;;;56.60;30.17;;;-3.60;99.90;;;;;;6245364;22;20443;-81
2021/03/09 05:57:41;;;;;;;59.70;30.80;;;-3.60;99.90;;;;;;6243038;23;20031;-80
2021/03/09 06:00:12;;;;;;;58.42;31.08;;;-3.60;99.90;;;;;;6245113;23;20024;-85
2021/03/09 06:02:40;;;;;;;62.22;31.42;;;-3.50;99.90;;;;;;6246791;22;20016;-85
2021/03/09 06:05:13;;;;;;;55.80;30.08;;;-3.50;99.90;;;;;;6246082;23;20020;-89
2021/03/09 06:07:46;;;;;;;57.28;30.42;;;-3.40;99.90;;;;;;6246374;23;20020;-89
2021/03/09 06:10:22;;;;;;;57.97;29.98;;;-3.40;99.90;;;;;;6248031;22;20327;-87
2021/03/09 06:12:53;;;;;;;56.17;29.63;;;-3.30;99.90;;;;;;6248279;22;20067;-87
2021/03/09 06:15:19;;;;;;;68.07;34.78;;;-3.30;99.90;;;;;;6251402;23;20024;-89
2021/03/09 06:17:57;;;;;;;61.45;33.88;;;-3.20;99.90;;;;;;6256246;22;20024;-88
2021/03/09 06:20:29;;;;;;;57.90;31.50;;;-3.20;99.90;;;;;;6256023;23;20027;-89
2021/03/09 06:23:26;;;;;;;71.53;34.55;;;-3.10;99.90;;;;;;6248493;23;20020;-90
2021/03/09 06:26:39;;;;;;;63.95;33.13;;;-3.00;99.90;;;;;;6248209;22;20090;-90
2021/03/09 06:29:10;;;;;;;55.10;29.80;;;-2.80;99.90;;;;;;6245737;23;20078;-89
2021/03/09 06:31:41;;;;;;;56.83;29.92;;;-2.70;99.90;;;;;;6247060;22;20043;-86
2021/03/09 06:34:30;;;;;;;58.00;29.97;;;-2.70;99.90;;;;;;6245858;22;20024;-84
2021/03/09 06:37:13;;;;;;;48.13;26.70;;;-2.60;99.90;;;;;;6247140;23;20016;-86
2021/03/09 06:39:51;;;;;;;56.05;28.23;;;-2.60;99.90;;;;;;6246930;22;20052;-87
2021/03/09 06:42:21;;;;;;;48.50;26.27;;;-2.50;99.90;;;;;;6246074;22;20340;-84
2021/03/09 06:44:53;;;;;;;54.45;29.38;;;-2.40;99.90;;;;;;6243231;22;20024;-89
2021/03/09 06:47:37;;;;;;;;;;;-2.40;99.90;;;;;;6249496;22;20035;-91
2021/03/09 06:50:16;;;;;;;50.22;28.23;;;-2.30;99.90;;;;;;6223753;23;19935;-90
2021/03/09 06:53:09;;;;;;;54.10;29.02;;;-2.10;99.90;;;;;;6247435;23;20088;-89
2021/03/09 06:55:43;;;;;;;56.30;29.98;;;-1.90;99.90;;;;;;6220800;23;20112;-90
2021/03/09 06:58:13;;;;;;;51.30;29.20;;;-1.60;99.90;;;;;;6197158;23;20128;-91
2021/03/09 07:00:43;;;;;;;53.85;30.05;;;-1.40;99.90;;;;;;6221086;23;20098;-90
2021/03/09 07:03:46;;;;;;;52.05;30.80;;;-1.30;99.90;;;;;;6250954;23;20020;-90
2021/03/09 07:06:15;;;;;;;77.50;42.35;;;-1.20;99.90;;;;;;6249301;23;20023;-90
2021/03/09 07:09:23;;;;;;;75.38;40.08;;;-1.10;99.90;;;;;;6243025;23;20370;-91
2021/03/09 07:12:04;;;;;;;;;;;;;;;;;;;;;
2021/03/09 07:14:45;;;;;;;56.92;31.48;;;-0.70;99.90;;;;;;6225671;23;20036;-92
2021/03/09 07:17:24;;;;;;;52.53;31.48;;;-0.40;99.90;;;;;;6254251;23;20195;-90
2021/03/09 07:19:53;;;;;;;45.42;26.17;;;-0.20;99.90;;;;;;6252120;23;20036;-87
2021/03/09 07:22:24;;;;;;;54.83;27.90;;;-0.10;99.90;;;;;;6246085;23;20016;-86
2021/03/09 07:24:56;;;;;;;49.00;27.27;;;0.00;99.90;;;;;;6220474;23;20297;-85
2021/03/09 07:27:32;;;;;;;45.55;26.60;;;0.20;99.90;;;;;;6245796;23;20051;-86
2021/03/09 07:30:01;;;;;;;51.90;27.45;;;0.40;99.90;;;;;;6246142;23;20023;-87
2021/03/09 07:32:29;;;;;;;50.25;24.10;;;0.70;99.90;;;;;;6246471;23;20084;-85
2021/03/09 07:35:09;;;;;;;40.00;23.58;;;0.90;99.90;;;;;;6247014;23;20091;-87
2021/03/09 07:37:38;;;;;;;41.75;25.67;;;1.10;99.90;;;;;;6249012;23;20020;-89
2021/03/09 07:40:07;;;;;;;48.03;25.77;;;1.30;99.90;;;;;;6246305;23;20153;-89
2021/03/09 07:42:40;;;;;;;39.85;23.80;;;1.60;99.90;;;;;;6246331;23;20067;-89
2021/03/09 07:45:15;;;;;;;38.53;23.95;;;1.90;99.90;;;;;;6195436;23;20091;-89
2021/03/09 07:48:09;;;;;;;38.53;22.80;;;2.30;99.90;;;;;;6245785;23;20060;-88
2021/03/09 07:50:42;;;;;;;31.92;20.55;;;2.90;99.90;;;;;;6224503;23;20012;-88
2021/03/09 07:53:12;;;;;;;30.85;19.08;;;3.40;99.90;;;;;;6246275;23;20020;-88
2021/03/09 07:55:39;;;;;;;35.08;20.15;;;3.60;99.90;;;;;;6255222;23;20087;-89
2021/03/09 07:58:26;;;;;;;28.90;19.70;;;3.60;99.90;;;;;;6262196;23;20022;-87
2021/03/09 08:01:09;;;;;;;30.02;18.48;;;3.80;99.90;;;;;;6264398;22;20035;-88
2021/03/09 08:03:38;;;;;;;30.65;18.98;;;3.80;99.90;;;;;;6266843;22;20035;-89
2021/03/09 08:06:06;;;;;;;28.80;18.88;;;3.60;99.90;;;;;;6264658;22;20031;-88
2021/03/09 08:08:45;;;;;;;29.15;19.98;;;3.50;99.90;;;;;;6255273;23;20082;-88
2021/03/09 08:11:24;;;;;;;28.50;19.20;;;3.50;99.90;;;;;;6249403;23;20067;-88
2021/03/09 08:14:02;;;;;;;30.23;19.08;;;3.50;99.90;;;;;;6219529;23;20066;-87
2021/03/09 08:16:36;;;;;;;29.95;19.60;;;3.40;99.90;;;;;;6246835;23;20043;-88
2021/03/09 08:19:10;;;;;;;31.25;19.88;;;3.80;99.90;;;;;;6247033;23;20028;-89
2021/03/09 08:22:02;;;;;;;27.90;19.25;;;4.10;99.90;;;;;;6220216;23;20017;-89
2021/03/09 08:24:43;;;;;;;28.92;18.83;;;4.60;99.90;;;;;;6247251;23;20020;-89
2021/03/09 08:27:31;;;;;;;27.27;17.70;;;4.90;99.90;;;;;;6246157;23;20403;-89
2021/03/09 08:30:25;;;;;;;27.80;18.07;;;5.00;99.90;;;;;;6247548;23;20008;-88
2021/03/09 08:32:51;;;;;;;26.17;17.88;;;5.00;99.90;;;;;;6219569;23;20035;-90
2021/03/09 08:35:19;;;;;;;26.70;17.38;;;5.30;99.90;;;;;;6246563;23;20059;-87
2021/03/09 08:37:49;;;;;;;23.35;16.63;;;5.80;98.10;;;;;;6247653;23;20060;-87
2021/03/09 08:40:25;;;;;;;26.80;17.73;;;6.00;95.00;;;;;;6247715;23;20030;-87
2021/03/09 08:43:01;;;;;;;30.25;18.75;;;6.00;93.80;;;;;;6247604;23;20118;-88
2021/03/09 08:45:40;;;;;;;29.92;19.02;;;6.00;94.90;;;;;;6247519;23;20091;-87
2021/03/09 08:48:09;;;;;;;30.65;18.30;;;5.90;94.20;;;;;;6249023;23;20095;-89
2021/03/09 08:50:46;;;;;;;25.65;18.30;;;5.70;95.00;;;;;;6247794;23;20024;-87
2021/03/09 08:53:33;;;;;;;25.35;16.98;;;5.80;95.30;;;;;;6225917;23;20090;-88
2021/03/09 08:56:06;;;;;;;23.48;16.88;;;5.90;95.40;;;;;;6247122;23;20016;-87
2021/03/09 08:58:40;;;;;;;23.73;16.55;;;6.00;94.70;;;;;;6222010;23;20315;-91
2021/03/09 09:01:07;;;;;;;22.08;14.95;;;6.50;91.70;;;;;;6248726;23;20099;-89
2021/03/09 09:03:42;;;;;;;24.63;16.23;;;6.80;86.80;;;;;;6248336;23;20024;-91
2021/03/09 09:06:26;;;;;;;21.48;15.25;;;7.10;84.30;;;;;;6251151;23;20035;-89
2021/03/09 09:08:55;;;;;;;19.10;15.25;;;7.40;83.50;;;;;;6250720;23;20028;-89
2021/03/09 09:11:47;;;;;;;20.35;15.65;;;7.80;79.70;;;;;;6248973;23;20379;-90
2021/03/09 09:14:31;;;;;;;21.80;14.68;;;8.20;77.10;;;;;;6228413;23;20020;-88
2021/03/09 09:17:15;;;;;;;19.70;14.95;;;8.70;73.20;;;;;;6186941;23;20020;-89
2021/03/09 09:19:44;;;;;;;18.80;14.02;;;9.10;71.40;;;;;;6249808;23;20081;-89
2021/03/09 09:22:12;;;;;;;19.42;14.65;;;8.90;70.20;;;;;;6253762;23;20031;-93
2021/03/09 09:24:41;;;;;;;19.05;13.48;;;9.10;68.80;;;;;;6251674;23;20141;-88
2021/03/09 09:27:25;;;;;;;17.45;11.73;;;9.40;68.60;;;;;;6251175;23;20034;-91
2021/03/09 09:29:59;;;;;;;20.00;13.95;;;9.30;65.00;;;;;;6226209;23;20020;-93
2021/03/09 09:32:49;;;;;;;18.38;13.57;;;8.80;67.80;;;;;;6251254;23;20043;-90
2021/03/09 09:35:20;;;;;;;19.58;12.48;;;8.60;68.20;;;;;;6249414;23;20024;-91
2021/03/09 09:37:49;;;;;;;19.15;13.10;;;8.40;69.60;;;;;;6223364;23;20020;-89
2021/03/09 09:40:19;;;;;;;18.33;13.32;;;8.60;69.90;;;;;;6249425;23;20020;-90
2021/03/09 09:43:11;;;;;;;22.65;15.55;;;8.70;68.10;;;;;;6247514;23;20024;-89
2021/03/09 09:45:50;;;;;;;16.88;12.80;;;8.80;69.10;;;;;;6241024;23;20052;-91
2021/03/09 09:48:25;;;;;;;18.58;13.32;;;9.00;68.10;;;;;;6246963;23;20035;-88
2021/03/09 09:51:01;;;;;;;14.85;11.30;;;8.80;68.10;;;;;;6221136;23;20032;-88
2021/03/09 09:53:44;;;;;;;12.35;9.10;;;9.00;66.60;;;;;;6223814;23;20431;-89
2021/03/09 09:56:23;;;;;;;14.35;11.45;;;9.00;63.90;;;;;;6227268;23;20094;-88
2021/03/09 09:58:59;;;;;;;11.77;9.30;;;9.00;67.00;;;;;;6223292;23;20396;-89
2021/03/09 10:01:31;;;;;;;12.07;7.97;;;9.30;62.70;;;;;;6246775;23;20020;-88
2021/03/09 10:04:05;;;;;;;11.13;7.43;;;9.50;61.90;;;;;;6220756;23;20020;-89
2021/03/09 10:06:42;;;;;;;10.20;8.13;;;9.80;60.70;;;;;;6223181;23;20039;-89
2021/03/09 10:09:13;;;;;;;8.52;7.05;;;10.00;60.20;;;;;;6225392;23;20049;-88
2021/03/09 10:11:54;;;;;;;12.63;9.20;;;10.20;58.60;;;;;;6223559;23;20090;-88
2021/03/09 10:14:27;;;;;;;9.98;8.20;;;10.90;56.40;;;;;;6246910;23;20020;-87
2021/03/09 10:16:54;;;;;;;12.93;9.75;;;11.40;55.30;;;;;;6245948;23;20402;-89
2021/03/09 10:19:32;;;;;;;14.23;9.15;;;11.50;54.60;;;;;;6246972;23;20051;-89
2021/03/09 10:22:01;;;;;;;11.77;9.15;;;11.80;55.10;;;;;;6246798;23;20017;-89
2021/03/09 10:25:06;;;;;;;12.55;10.32;;;11.70;54.50;;;;;;6247582;23;20055;-90
2021/03/09 10:27:47;;;;;;;14.75;10.75;;;11.60;55.80;;;;;;6247047;23;20028;-90
2021/03/09 10:30:16;;;;;;;13.85;10.32;;;12.00;55.80;;;;;;6247643;23;20020;-93
2021/03/09 10:32:53;;;;;;;13.70;10.80;;;12.00;53.90;;;;;;6248292;23;20020;-91
2021/03/09 10:35:19;;;;;;;13.50;10.05;;;12.00;54.10;;;;;;6248519;23;20016;-89
2021/03/09 10:37:47;;;;;;;13.75;10.85;;;11.90;53.90;;;;;;6248048;23;20017;-89
2021/03/09 10:40:14;;;;;;;14.02;10.45;;;11.70;54.20;;;;;;6247073;23;20321;-90
2021/03/09 10:42:48;;;;;;;11.45;9.30;;;11.90;53.10;;;;;;6220843;23;20134;-89
2021/03/09 10:45:18;;;;;;;12.48;9.55;;;12.20;54.30;;;;;;6248505;23;20123;-88
2021/03/09 10:47:55;;;;;;;10.50;8.80;;;12.20;52.90;;;;;;6239233;23;20024;-87
2021/03/09 10:50:27;;;;;;;10.88;8.80;;;12.30;51.30;;;;;;6247328;22;20399;-89
2021/03/09 10:52:54;;;;;;;10.15;8.98;;;12.40;50.30;;;;;;6247546;23;20031;-90
2021/03/09 10:55:21;;;;;;;10.90;9.05;;;12.60;50.60;;;;;;6247425;23;20407;-92
2021/03/09 10:57:52;;;;;;;12.65;9.77;;;12.50;49.00;;;;;;6222196;23;20028;-88
2021/03/09 11:00:26;;;;;;;12.32;9.93;;;12.30;50.90;;;;;;6248658;23;20119;-90
2021/03/09 11:02:56;;;;;;;10.40;9.27;;;12.70;49.90;;;;;;6259649;23;20016;-90
2021/03/09 11:05:22;;;;;;;11.50;9.25;;;13.20;48.00;;;;;;6238904;22;20038;-91
2021/03/09 11:07:51;;;;;;;11.68;9.35;;;13.50;48.20;;;;;;6271746;22;20016;-91
2021/03/09 11:10:19;;;;;;;13.65;9.10;;;13.90;46.60;;;;;;6243882;22;20035;-90
2021/03/09 11:12:45;;;;;;;13.00;9.23;;;13.20;47.50;;;;;;6268588;22;20027;-90
2021/03/09 11:15:15;;;;;;;9.05;8.07;;;13.00;49.20;;;;;;6266422;23;20024;-91
2021/03/09 11:17:44;;;;;;;12.63;9.25;;;13.00;47.60;;;;;;6258093;23;20084;-90
2021/03/09 11:20:12;;;;;;;10.43;9.10;;;13.10;46.90;;;;;;6224681;23;20020;-90
2021/03/09 11:22:43;;;;;;;15.07;9.55;;;13.40;46.10;;;;;;6248032;23;20078;-93
2021/03/09 11:25:22;;;;;;;11.23;9.43;;;13.40;46.10;;;;;;6248212;23;20026;-88
2021/03/09 11:27:49;;;;;;;12.45;9.07;;;13.60;46.30;;;;;;6224159;23;20398;-88
2021/03/09 11:30:16;;;;;;;11.80;8.93;;;13.60;46.30;;;;;;6250856;23;20024;-90
2021/03/09 11:32:42;;;;;;;12.55;9.13;;;13.60;45.70;;;;;;6225006;23;20075;-90
2021/03/09 11:35:10;;;;;;;10.98;9.05;;;13.60;44.50;;;;;;6225980;23;20359;-90
2021/03/09 11:37:37;;;;;;;10.75;9.25;;;13.40;44.50;;;;;;6226665;23;20147;-90
2021/03/09 11:40:06;;;;;;;12.50;9.65;;;13.70;44.60;;;;;;6252480;23;20087;-90
2021/03/09 11:42:33;;;;;;;11.63;9.60;;;13.30;44.80;;;;;;6253014;23;20079;-91
2021/03/09 11:45:00;;;;;;;13.70;9.48;;;12.90;45.40;;;;;;6253395;23;20411;-89
2021/03/09 11:47:26;;;;;;;12.57;9.48;;;12.80;45.80;;;;;;6230063;23;20036;-90
2021/03/09 11:49:54;;;;;;;12.48;9.00;;;12.50;45.90;;;;;;6221308;23;20024;-91
2021/03/09 11:52:20;;;;;;;11.52;9.98;;;11.80;47.70;;;;;;6223625;23;20103;-89
2021/03/09 11:54:46;;;;;;;12.57;9.75;;;11.70;47.30;;;;;;6220603;23;20527;-92
2021/03/09 11:57:13;;;;;;;11.10;9.30;;;11.20;46.00;;;;;;6190837;23;20328;-88
2021/03/09 12:00:41;;;;;;;13.55;10.50;;;10.90;48.20;;;;;;6220134;23;20021;-93
2021/03/09 12:03:49;;;;;;;17.20;10.10;;;11.40;49.50;;;;;;6051863;23;20031;-91
2021/03/09 12:06:18;;;;;;;11.50;9.55;;;11.90;47.90;;;;;;6018643;23;20027;-91
2021/03/09 12:09:09;;;;;;;17.02;9.82;;;11.70;47.70;;;;;;6042033;23;20031;-90
2021/03/09 12:11:54;;;;;;;13.65;10.00;;;11.80;47.00;;;;;;6042922;23;20102;-90
2021/03/09 12:14:22;;;;;;;10.45;8.88;;;12.20;48.00;;;;;;6038518;23;20045;-91
2021/03/09 12:16:57;;;;;;;12.30;10.15;;;13.10;47.60;;;;;;6040273;23;20023;-90
2021/03/09 12:19:24;;;;;;;11.68;8.63;;;14.10;45.50;;;;;;6039949;23;20026;-90
2021/03/09 12:21:52;;;;;;;10.27;9.18;;;15.30;41.90;;;;;;6169908;23;20020;-91
2021/03/09 12:24:19;;;;;;;10.68;9.35;;;16.00;42.30;;;;;;6206975;23;20021;-89
2021/03/09 12:26:46;;;;;;;9.90;7.85;;;16.20;39.90;;;;;;6218474;23;20043;-89
2021/03/09 12:29:18;;;;;;;9.38;8.43;;;16.10;38.90;;;;;;6193390;23;20031;-89
2021/03/09 12:31:44;;;;;;;11.27;8.68;;;15.10;40.10;;;;;;6218961;23;20095;-90
2021/03/09 12:34:11;;;;;;;11.07;9.70;;;14.60;40.30;;;;;;6192675;23;20029;-89
2021/03/09 12:36:40;;;;;;;10.05;8.82;;;14.10;41.30;;;;;;6217481;23;20328;-87
2021/03/09 12:39:07;;;;;;;10.27;8.88;;;13.50;42.20;;;;;;6192929;23;20036;-88
2021/03/09 12:41:37;;;;;;;9.48;8.25;;;13.60;42.30;;;;;;6192427;23;20016;-87
2021/03/09 12:44:09;;;;;;;12.07;8.93;;;13.30;42.60;;;;;;6217864;23;20028;-89
2021/03/09 12:46:39;;;;;;;12.57;9.38;;;13.20;43.70;;;;;;6204900;23;20080;-91
2021/03/09 12:49:06;;;;;;;10.25;8.73;;;13.90;42.70;;;;;;6249686;23;20030;-92
2021/03/09 12:51:36;;;;;;;11.80;9.32;;;14.50;42.60;;;;;;6248552;23;20456;-89
2021/03/09 12:54:07;;;;;;;10.07;8.52;;;14.60;41.70;;;;;;6248166;23;20090;-90
2021/03/09 12:56:39;;;;;;;10.95;9.10;;;15.70;39.70;;;;;;6222328;23;20028;-89
2021/03/09 12:59:07;;;;;;;12.27;8.95;;;15.50;39.90;;;;;;6247892;23;20289;-89
2021/03/09 13:01:49;;;;;;;10.70;8.25;;;15.50;38.80;;;;;;6248546;23;20082;-90